x

Orange Beach - 44 Nm Se Of Mobile, Al (42012) Wave Buoy

7:50pm - Mon 20th Oct 2014 All times are CDT. -5 hours from GMT.

  • Sig Wave height 0.7ft
  • Average Period 4s
  • Wind
    7mph
  • Sea Temp 79°f
  • Air Temp 75°f
  • Sea Pressure 1015.2mb
  • Orange Beach - 44 Nm Se Of Mobile, Al
  • Orange Beach - 44 Nm Se Of Mobile, Al

More Historic Weather Station data

Upgrade to MSW Pro to gain access to the past 30 days of data for over 8000 Wavebouys and Weather Stations around the globe.

Join Pro

Comparision Forecast

View Surf forecast
   
Mon 10/20 7:50pm 0.7ft  -  4s 7
mph
1015.2mb 79f 75f
6:50pm 0.7ft  -  4s 2 4 mph 1015.1mb 79f 74f
5:50pm 1ft 4s 3s 4
mph
1015mb 79f 74f
4:50pm 1ft 4s 3s 2
mph
1014.9mb 79f 75f
3:50pm 1ft 4s 3s  -  2 mph 1015.2mb 79f 75f
2:50pm 1ft 4s 3s 4 7 mph 1015.5mb 79f 74f
1:50pm 1ft 3s 3s 4 9 mph 1015.8mb 79f 73f
12:50pm 1.3ft 3s 3s 9 11 mph 1016.6mb 79f 73f
11:50am 1.3ft 3s 3s 11 13 mph 1017mb 78f 72f
10:50am 1.3ft 3s 3s 13 16 mph 1017.2mb 78f 72f
9:50am 1.3ft 3s 3s 13 16 mph 1017.4mb 78f 71f
8:50am 1.3ft 3s 3s 11 13 mph 1017.2mb 78f 71f
7:50am 1ft 5s 3s 9 11 mph 1016.8mb 78f 72f
6:50am 1ft 5s 4s 9 11 mph 1016.4mb 78f 71f
5:50am 1ft 5s 4s 9 11 mph 1016.1mb 78f 72f
4:50am 1ft 5s 4s 7 9 mph 1016.2mb 78f 72f
3:50am 1ft 5s 4s 9 11 mph 1016.5mb 78f 71f
2:50am 1ft 5s 4s 7
mph
1017mb 78f 72f
1:50am 1.3ft 5s 4s 4 9 mph 1017.1mb 78f 73f
12:50am 1.3ft 5s 4s 2 4 mph 1017.3mb 79f 72f
Sun 10/19 9:50pm 1.6ft 5s 4s 2
mph
1018mb 79f 72f
8:50pm 1.6ft 5s 4s  -  2 mph 1018mb 79f 72f
7:50pm 1.6ft 5s 4s  -  2 mph 1017.6mb 79f 72f
6:50pm 2ft 5s 4s  -  2 mph 1017.3mb 79f 72f
5:50pm 2ft 5s 4s 4 7 mph 1017mb 79f 72f
4:50pm 2.5ft 6s 4s 9 11 mph 1016.9mb 79f 71f
3:50pm 2.5ft 6s 4s 7 9 mph 1017.2mb 79f 70f
2:50pm 2.5ft 6s 4s 7 11 mph 1017.6mb 79f 69f
1:50pm 3ft 5s 4s 7 9 mph 1018mb 79f 69f
12:50pm 3ft 5s 4s 9 13 mph 1018.5mb 79f 67f
11:50am 3.5ft 6s 4s 13 18 mph 1018.9mb 79f 67f
10:50am 3.5ft 5s 4s 18 22 mph 1018.9mb 79f 66f
9:50am 4ft 5s 4s 20 25 mph 1018.8mb 79f 66f
8:50am 3.5ft 5s 4s 22 29 mph 1018.6mb 78f 67f
7:50am 3.5ft 5s 4s 25 29 mph 1017.7mb 78f 67f
6:50am 3ft 4s 4s 25 27 mph 1017.2mb 78f 68f
5:50am 2.5ft 4s 4s 20 25 mph 1017.3mb 79f 68f
4:50am 2ft 4s 3s 18 22 mph 1016.8mb 78f 69f
3:50am 2ft 4s 3s 16 20 mph 1016.4mb 78f 69f
2:50am 2.5ft 4s 3s 18 22 mph 1016.4mb 79f 70f
1:50am 2.5ft 4s 4s 18 22 mph 1016.2mb 79f 71f
12:50am 2.5ft 4s 3s 22 27 mph 1015.9mb 79f 72f
Sat 10/18 11:50pm 1.6ft 3s 3s 20 25 mph 1015.8mb 79f 74f
10:50pm 1.3ft 3s 3s 20 22 mph 1015.5mb 79f 77f
9:50pm 1.3ft 3s 3s 13 18 mph 1015.3mb 79f 78f
8:50pm 1.6ft 3s 3s 13 16 mph 1014.6mb 79f 78f
7:50pm 1.3ft 3s 3s 13 16 mph 1014.2mb 79f 77f
6:50pm 1.6ft 3s 3s 13 16 mph 1013.8mb 79f 77f
5:50pm 1.3ft 3s 3s 16
mph
1013.5mb 79f 77f
4:50pm 1.3ft 3s 3s 13 16 mph 1013.6mb 79f 78f
3:50pm 1.3ft 4s 3s 13 16 mph 1013.7mb 79f 77f
2:50pm 1.3ft 4s 3s 13 16 mph 1013.9mb 79f 76f
7:50am 2ft 4s 3s 16 18 mph 1016mb 78f 73f
6:50am 2ft 4s 3s 16 20 mph 1015.7mb 78f 74f
5:50am 1.6ft 3s 3s 16 18 mph 1015.3mb 78f 76f
4:50am 1.3ft 3s 3s 16 18 mph 1015mb 78f 75f
3:50am 1.3ft 3s 3s 13 16 mph 1014.6mb 78f 75f
2:50am 1.3ft 3s 3s 13 16 mph 1014.6mb 78f 75f
1:50am 1.3ft 3s 3s 13 18 mph 1014.7mb 78f 76f
12:50am 1ft 3s 3s 13 16 mph 1014.8mb 78f 76f
Fri 10/17 11:50pm 1ft 3s 3s 11 13 mph 1015mb 78f 76f
10:50pm 1ft 3s 3s 11 13 mph 1015.3mb 78f 76f
9:50pm 1ft 3s 3s 11 13 mph 1015.5mb 78f 76f
8:50pm 1ft 3s 3s 11 16 mph 1015.3mb 78f 76f
7:50pm 0.7ft  -  3s 11 13 mph 1014.9mb 79f 75f
6:50pm 0.7ft  -  3s 11 16 mph 1014.6mb 79f 76f
5:50pm 0.7ft  -  3s 11 13 mph 1014.7mb 79f 76f
4:50pm 0.7ft  -  4s 11 13 mph 1014.9mb 80f 76f
3:50pm 0.7ft  -  4s 9 11 mph 1015.2mb 80f 76f
2:50pm 0.7ft  -  4s 7 9 mph 1015.5mb 81f 75f
1:50pm 0.7ft  -  4s 4
mph
1015.8mb 81f 76f
12:50pm 0.7ft  -  4s 2
mph
1016.6mb 80f 75f
11:50am 0.7ft  -  4s 2 4 mph 1017.3mb 79f 74f
10:50am 0.7ft  -  4s 2 4 mph 1017.4mb 79f 74f
9:50am 0.7ft  -  4s 4
mph
1017.4mb 78f 74f
8:50am 0.7ft  -  4s 4 7 mph 1017.1mb 78f 74f
7:50am 1ft 4s 3s 7
mph
1016.5mb 78f 74f
6:50am 0.7ft  -  3s 7 9 mph 1015.9mb 78f 74f
5:50am 1ft 3s 3s 9 11 mph 1015.3mb 78f 74f
4:50am 1ft 3s 3s 7 9 mph 1014.7mb 78f 75f
3:50am 1ft 3s 3s 7 9 mph 1014.3mb 78f 76f
2:50am 1ft 3s 3s 4 9 mph 1014mb 78f 76f
1:50am 1ft 3s 3s 4 7 mph 1014.1mb 78f 76f